createdAt,value
2022-12-26T00:00:39.602Z,45.17
2022-12-26T00:03:24.127Z,49.30
2022-12-26T00:05:57.893Z,45.95
2022-12-26T02:07:12.374Z,44.00
2022-12-26T02:09:44.678Z,44.22
2022-12-26T02:12:35.720Z,41.22
2022-12-26T02:15:08.938Z,38.00
2022-12-26T02:17:40.594Z,40.75
2022-12-26T02:20:22.156Z,41.08
2022-12-26T02:23:23.709Z,40.97
2022-12-26T02:26:32.912Z,39.15
2022-12-26T02:29:33.605Z,38.63
2022-12-26T02:32:13.569Z,43.58
2022-12-26T02:34:52.472Z,41.55
2022-12-26T02:37:33.215Z,35.83
2022-12-26T02:40:24.849Z,39.25
2022-12-26T02:43:05.376Z,37.70
2022-12-26T02:45:58.675Z,35.58
2022-12-26T02:48:44.708Z,37.45
2022-12-26T02:51:40.284Z,42.20
2022-12-26T02:54:49.268Z,42.03
2022-12-26T02:57:42.888Z,42.65
2022-12-26T03:00:34.920Z,43.30
2022-12-26T03:03:24.856Z,42.67
2022-12-26T03:06:16.886Z,44.22
2022-12-26T03:09:08.452Z,37.03
2022-12-26T03:11:58.556Z,37.75
2022-12-26T03:14:34.985Z,40.80
2022-12-26T03:17:22.446Z,31.02
2022-12-26T03:20:04.107Z,35.42
2022-12-26T03:22:46.808Z,31.38
2022-12-26T03:25:38.998Z,35.42
2022-12-26T03:28:19.048Z,31.23
2022-12-26T03:30:53.395Z,27.85
2022-12-26T03:33:52.785Z,27.77
2022-12-26T03:36:42.044Z,27.40
2022-12-26T03:39:46.804Z,28.48
2022-12-26T03:45:33.016Z,24.27
2022-12-26T03:48:35.680Z,21.45
2022-12-26T03:51:29.350Z,24.10
2022-12-26T03:54:19.728Z,21.30
2022-12-26T03:57:14.274Z,18.35
2022-12-26T04:00:06.988Z,16.45
2022-12-26T04:02:54.997Z,18.73
2022-12-26T04:05:40.854Z,14.60
2022-12-26T04:08:35.811Z,16.70
2022-12-26T04:11:23.683Z,13.77
2022-12-26T04:14:31.802Z,15.13
2022-12-26T04:17:22.691Z,15.05
2022-12-26T04:20:01.834Z,16.85
2022-12-26T04:22:58.893Z,12.90
2022-12-26T04:25:50.199Z,13.13
2022-12-26T04:28:38.204Z,10.52
2022-12-26T04:34:40.073Z,8.60
2022-12-26T04:37:33.769Z,11.73
2022-12-26T04:40:21.587Z,11.65
2022-12-26T04:43:49.261Z,8.23
2022-12-26T04:45:58.768Z,9.38
2022-12-26T04:48:51.349Z,9.18
2022-12-26T04:51:20.661Z,7.45
2022-12-26T04:53:49.016Z,8.80
2022-12-26T04:56:17.409Z,7.03
2022-12-26T04:58:45.932Z,8.07
2022-12-26T05:01:31.307Z,10.18
2022-12-26T05:04:21.006Z,7.82
2022-12-26T05:07:09.887Z,8.95
2022-12-26T05:09:41.024Z,12.65
2022-12-26T05:12:11.365Z,9.85
2022-12-26T05:14:39.609Z,9.95
2022-12-26T05:17:26.249Z,8.30
2022-12-26T05:20:13.471Z,9.07
2022-12-26T05:23:02.341Z,7.20
2022-12-26T05:25:50.316Z,7.53
2022-12-26T05:28:36.736Z,10.38
2022-12-26T05:31:05.853Z,10.25
2022-12-26T05:33:51.640Z,7.70
2022-12-26T05:36:23.071Z,9.23
2022-12-26T05:38:51.633Z,6.40
2022-12-26T05:45:28.045Z,10.25
2022-12-26T05:48:02.593Z,8.23
2022-12-26T05:50:31.264Z,6.03
2022-12-26T05:53:01.419Z,6.55
2022-12-26T05:55:29.676Z,6.40
2022-12-26T05:57:58.387Z,8.60
2022-12-26T06:00:30.439Z,7.72
2022-12-26T06:03:02.386Z,4.68
2022-12-26T06:05:30.747Z,6.45
2022-12-26T06:08:00.470Z,17.00
2022-12-26T06:10:29.892Z,7.90
2022-12-26T06:12:59.368Z,9.00
2022-12-26T06:15:27.785Z,7.85
2022-12-26T06:17:56.941Z,7.93
2022-12-26T06:20:25.343Z,11.38
2022-12-26T06:22:53.627Z,6.55
2022-12-26T06:25:24.847Z,11.30
2022-12-26T06:27:53.114Z,8.57
2022-12-26T06:30:22.829Z,14.60
2022-12-26T06:32:51.118Z,8.20
2022-12-26T06:35:19.517Z,7.75
2022-12-26T06:37:47.671Z,8.48
2022-12-26T06:40:15.968Z,8.18
2022-12-26T06:42:45.771Z,7.80
2022-12-26T06:45:13.921Z,12.25
2022-12-26T06:47:42.654Z,8.48
2022-12-26T06:50:11.408Z,10.48
2022-12-26T06:52:39.704Z,9.85
2022-12-26T06:55:08.733Z,6.38
2022-12-26T06:58:38.130Z,5.43
2022-12-26T07:01:09.587Z,7.18
2022-12-26T07:03:38.217Z,14.05
2022-12-26T07:06:08.097Z,8.05
2022-12-26T07:08:36.520Z,7.75
2022-12-26T07:11:05.701Z,8.93
2022-12-26T07:13:34.330Z,5.75
2022-12-26T07:16:02.903Z,9.35
2022-12-26T07:18:32.806Z,8.85
2022-12-26T07:21:04.047Z,8.05
2022-12-26T07:23:35.441Z,5.95
2022-12-26T07:26:04.374Z,6.90
2022-12-26T07:28:33.557Z,8.55
2022-12-26T07:31:01.851Z,7.28
2022-12-26T07:33:30.775Z,9.82
2022-12-26T07:36:02.816Z,9.10
2022-12-26T07:38:31.368Z,9.30
2022-12-26T07:41:20.879Z,7.22
2022-12-26T07:43:49.242Z,8.20
2022-12-26T07:46:20.867Z,7.57
2022-12-26T07:48:49.776Z,10.07
2022-12-26T07:51:22.681Z,13.88
2022-12-26T07:53:51.491Z,6.53
2022-12-26T07:56:23.921Z,7.35
2022-12-26T07:58:53.454Z,6.32
2022-12-26T08:01:48.757Z,9.07
2022-12-26T08:04:54.646Z,10.85
2022-12-26T08:07:48.603Z,5.80
2022-12-26T08:10:19.919Z,9.85
2022-12-26T08:12:51.740Z,12.63
2022-12-26T08:15:24.299Z,10.13
2022-12-26T08:17:52.986Z,11.20
2022-12-26T08:20:38.306Z,9.60
2022-12-26T08:34:06.697Z,7.30
2022-12-26T10:09:40.315Z,8.35
2022-12-26T10:12:38.550Z,15.55
2022-12-26T10:21:50.677Z,9.57
2022-12-26T10:24:36.481Z,11.68
2022-12-26T10:28:08.456Z,12.02
2022-12-26T10:31:07.603Z,16.50
2022-12-26T10:33:55.759Z,10.20
2022-12-26T10:36:35.236Z,14.18
2022-12-26T10:46:40.425Z,17.23
2022-12-26T10:49:15.104Z,11.65
2022-12-26T10:51:53.422Z,19.83
2022-12-26T10:54:22.736Z,13.20
2022-12-26T10:56:54.476Z,14.27
2022-12-26T10:59:24.869Z,8.55
2022-12-26T11:02:15.453Z,16.65
2022-12-26T11:05:16.103Z,15.30
2022-12-26T11:07:53.563Z,12.00
2022-12-26T11:10:27.036Z,10.93
2022-12-26T11:12:57.880Z,13.95
2022-12-26T11:15:35.978Z,10.73
2022-12-26T11:18:24.088Z,10.00
2022-12-26T11:20:55.298Z,14.60
2022-12-26T11:23:26.747Z,10.93
2022-12-26T11:25:56.623Z,8.98
2022-12-26T11:28:31.970Z,4.55
2022-12-26T11:31:01.450Z,17.15
2022-12-26T11:33:34.943Z,8.80
2022-12-26T11:36:09.223Z,10.32
2022-12-26T11:38:51.218Z,7.20
2022-12-26T11:41:33.742Z,11.65
2022-12-26T11:44:17.293Z,6.63
2022-12-26T11:46:54.152Z,12.93
2022-12-26T11:49:30.347Z,8.18
2022-12-26T11:52:07.565Z,7.18
2022-12-26T11:54:38.554Z,9.10
2022-12-26T11:57:44.588Z,10.52
2022-12-26T12:00:27.772Z,13.00
2022-12-26T12:02:56.133Z,9.25
2022-12-26T12:06:10.700Z,8.82
2022-12-26T12:09:06.055Z,8.13
2022-12-26T12:12:20.710Z,10.05
2022-12-26T12:15:03.279Z,13.85
2022-12-26T12:21:18.862Z,7.30
2022-12-26T12:24:40.248Z,7.82
2022-12-26T12:27:22.296Z,4.45
2022-12-26T12:30:21.434Z,7.93
2022-12-26T12:33:05.168Z,6.53
2022-12-26T12:35:59.478Z,4.30
2022-12-26T12:38:34.693Z,7.05
2022-12-26T12:41:17.317Z,5.13
2022-12-26T12:43:54.393Z,4.50
2022-12-26T12:46:31.295Z,3.70
2022-12-26T12:49:14.979Z,12.57
2022-12-26T12:51:53.433Z,7.05
2022-12-26T12:54:55.290Z,3.42
2022-12-26T12:57:29.383Z,8.13
2022-12-26T13:00:12.607Z,8.88
2022-12-26T13:02:47.273Z,3.73
2022-12-26T13:05:29.362Z,7.43
2022-12-26T13:08:03.797Z,5.68
2022-12-26T13:10:34.531Z,8.10
2022-12-26T13:13:13.055Z,4.28
2022-12-26T13:15:46.031Z,6.55
2022-12-26T13:18:18.109Z,5.25
2022-12-26T13:20:50.112Z,4.85
2022-12-26T13:23:47.003Z,5.68
2022-12-26T13:26:18.548Z,5.30
2022-12-26T13:28:59.916Z,6.53
2022-12-26T13:31:34.260Z,7.35
2022-12-26T13:34:06.455Z,6.60
2022-12-26T13:36:45.334Z,5.65
2022-12-26T13:39:37.996Z,8.32
2022-12-26T13:42:40.973Z,8.80
2022-12-26T13:45:46.674Z,3.50
2022-12-26T13:49:02.476Z,7.32
2022-12-26T13:51:46.822Z,10.88
2022-12-26T13:54:15.990Z,38.55
2022-12-26T13:57:20.415Z,6.07
2022-12-26T14:00:17.692Z,12.25
2022-12-26T14:03:30.311Z,8.90
2022-12-26T14:06:43.113Z,9.68
2022-12-26T14:09:23.035Z,11.88
2022-12-26T14:12:22.957Z,9.60
2022-12-26T14:15:06.628Z,8.55
2022-12-26T14:17:48.210Z,5.18
2022-12-26T14:20:32.898Z,10.73
2022-12-26T14:23:20.373Z,15.30
2022-12-26T14:25:56.001Z,3.40
2022-12-26T14:28:30.694Z,9.38
2022-12-26T14:31:12.484Z,11.90
2022-12-26T14:33:47.480Z,13.80
2022-12-26T14:36:34.113Z,7.30
2022-12-26T14:39:13.505Z,7.18
2022-12-26T14:42:39.098Z,11.13
2022-12-26T14:45:44.002Z,13.68
2022-12-26T14:48:48.969Z,7.75
2022-12-26T14:51:34.866Z,7.82
2022-12-26T14:54:37.631Z,12.82
2022-12-26T14:57:47.547Z,10.82
2022-12-26T15:00:47.810Z,5.60
2022-12-26T15:03:32.889Z,8.93
2022-12-26T15:06:32.278Z,6.90
2022-12-26T15:09:24.231Z,10.27
2022-12-26T15:12:23.742Z,14.30
2022-12-26T15:15:18.816Z,11.18
2022-12-26T15:18:05.463Z,10.65
2022-12-26T15:21:05.293Z,15.95
2022-12-26T15:24:34.257Z,14.05
2022-12-26T15:27:49.984Z,12.40
2022-12-26T15:30:21.853Z,19.05
2022-12-26T15:33:02.565Z,15.15
2022-12-26T15:35:36.120Z,15.25
2022-12-26T15:38:27.430Z,24.27
2022-12-26T15:41:11.410Z,14.73
2022-12-26T15:44:09.384Z,8.80
2022-12-26T15:46:45.514Z,13.07
2022-12-26T15:49:30.818Z,10.68
2022-12-26T15:52:11.524Z,12.38
2022-12-26T15:55:07.164Z,14.57
2022-12-26T15:57:47.505Z,6.55
2022-12-26T16:00:22.251Z,14.48
2022-12-26T16:03:04.721Z,11.07
2022-12-26T16:05:41.025Z,10.88
2022-12-26T16:08:56.716Z,13.85
2022-12-26T16:11:27.087Z,14.82
2022-12-26T16:14:16.652Z,11.52
2022-12-26T16:16:45.003Z,12.98
2022-12-26T16:19:19.283Z,11.93
2022-12-26T16:22:10.466Z,13.02
2022-12-26T16:24:41.185Z,10.65
2022-12-26T16:27:19.884Z,16.48
2022-12-26T16:29:54.906Z,10.77
2022-12-26T16:32:32.174Z,13.05
2022-12-26T16:35:03.804Z,16.30
2022-12-26T16:37:53.887Z,16.88
2022-12-26T16:40:35.159Z,13.77
2022-12-26T16:43:06.224Z,15.27
2022-12-26T16:45:37.025Z,11.73
2022-12-26T16:48:08.506Z,10.48
2022-12-26T16:50:51.318Z,11.02
2022-12-26T16:56:38.463Z,19.05
2022-12-26T16:59:17.309Z,11.70
2022-12-26T17:01:50.974Z,21.58
2022-12-26T17:04:22.836Z,17.63
2022-12-26T17:06:54.925Z,20.33
2022-12-26T17:09:30.566Z,17.73
2022-12-26T17:12:10.816Z,14.38
2022-12-26T17:14:43.266Z,14.35
2022-12-26T17:17:33.615Z,20.85
2022-12-26T17:20:33.507Z,15.07
2022-12-26T17:23:01.739Z,34.83
2022-12-26T17:25:33.852Z,17.35
2022-12-26T17:28:24.680Z,16.08
2022-12-26T17:30:57.537Z,20.38
2022-12-26T17:37:32.719Z,17.02
2022-12-26T17:40:29.930Z,18.75
2022-12-26T17:43:07.645Z,19.45
2022-12-26T17:45:38.889Z,27.00
2022-12-26T17:48:24.547Z,15.48
2022-12-26T17:50:59.635Z,9.53
2022-12-26T17:53:31.564Z,25.70
2022-12-26T17:56:02.169Z,19.05
2022-12-26T17:58:34.981Z,15.30
2022-12-26T18:01:03.914Z,10.65
2022-12-26T18:06:19.910Z,11.25
2022-12-26T18:08:48.437Z,14.57
2022-12-26T18:11:16.939Z,13.45
2022-12-26T18:13:51.498Z,15.63
2022-12-26T18:16:25.170Z,14.50
2022-12-26T18:18:53.267Z,13.50
2022-12-26T18:21:21.336Z,15.68
2022-12-26T18:23:49.628Z,12.20
2022-12-26T18:26:25.437Z,16.10
2022-12-26T18:28:55.554Z,9.43
2022-12-26T18:31:24.372Z,15.43
2022-12-26T18:33:53.343Z,16.50
2022-12-26T18:36:23.444Z,27.05
2022-12-26T18:38:53.179Z,11.90
2022-12-26T18:41:24.122Z,16.35
2022-12-26T18:43:54.541Z,12.43
2022-12-26T18:46:25.580Z,13.27
2022-12-26T18:48:59.810Z,17.80
2022-12-26T18:51:29.213Z,17.33
2022-12-26T18:53:57.435Z,11.50
2022-12-26T18:56:26.695Z,9.00
2022-12-26T18:58:58.031Z,11.23
2022-12-26T19:01:28.051Z,21.55
2022-12-26T19:03:58.569Z,18.88
2022-12-26T19:06:35.411Z,16.77
2022-12-26T19:09:03.539Z,10.68
2022-12-26T19:11:34.653Z,15.57
2022-12-26T19:14:02.926Z,20.67
2022-12-26T19:16:33.898Z,12.18
2022-12-26T19:19:04.814Z,15.10
2022-12-26T19:21:32.901Z,15.00
2022-12-26T19:24:08.828Z,15.60
2022-12-26T19:26:36.939Z,8.90
2022-12-26T19:29:05.205Z,16.48
2022-12-26T19:31:34.955Z,14.93
2022-12-26T19:34:03.328Z,13.55
2022-12-26T19:36:32.287Z,9.95
2022-12-26T19:39:02.687Z,9.40
2022-12-26T19:41:35.063Z,14.30
2022-12-26T19:44:06.461Z,21.40
2022-12-26T19:46:35.939Z,12.45
2022-12-26T19:49:04.996Z,12.93
2022-12-26T19:51:33.419Z,8.27
2022-12-26T19:54:01.807Z,9.43
2022-12-26T19:56:30.261Z,11.27
2022-12-26T19:58:58.928Z,12.15
2022-12-26T20:01:32.079Z,10.38
2022-12-26T20:04:04.010Z,6.22
2022-12-26T20:06:35.039Z,9.88
2022-12-26T20:09:06.882Z,7.45
2022-12-26T20:11:37.662Z,12.05
2022-12-26T20:14:11.640Z,10.18
2022-12-26T20:17:04.925Z,12.25
2022-12-26T20:19:29.796Z,11.05
2022-12-26T20:21:59.383Z,7.90
2022-12-26T20:24:35.010Z,11.30
2022-12-26T20:27:08.865Z,9.32
2022-12-26T20:32:04.889Z,10.73
2022-12-26T20:34:37.747Z,15.57
2022-12-26T20:37:05.830Z,12.23
2022-12-26T20:39:36.654Z,14.18
2022-12-26T20:42:04.885Z,5.15
2022-12-26T20:44:33.135Z,11.45
2022-12-26T20:47:01.418Z,10.57
2022-12-26T20:49:38.849Z,13.38
2022-12-26T20:52:08.360Z,11.25
2022-12-26T20:54:36.283Z,12.02
2022-12-26T20:57:04.500Z,16.42
2022-12-26T20:59:40.323Z,13.90
2022-12-26T21:02:10.460Z,15.38
2022-12-26T21:04:38.743Z,7.18
2022-12-26T21:07:08.408Z,11.30
2022-12-26T21:09:40.988Z,10.45
2022-12-26T21:12:14.178Z,12.75
2022-12-26T21:14:42.365Z,19.48
2022-12-26T21:17:10.491Z,10.98
2022-12-26T21:19:43.412Z,13.95
2022-12-26T21:22:12.935Z,8.97
2022-12-26T21:24:44.018Z,15.38
2022-12-26T21:27:12.167Z,17.13
2022-12-26T21:29:40.531Z,9.02
2022-12-26T21:32:08.966Z,11.35
2022-12-26T21:34:37.038Z,13.90
2022-12-26T21:37:22.753Z,14.13
2022-12-26T21:39:55.293Z,12.57
2022-12-26T21:42:25.757Z,13.23
2022-12-26T21:44:57.506Z,11.30
2022-12-26T21:47:27.478Z,13.30
2022-12-26T21:49:57.044Z,9.77
2022-12-26T21:52:25.058Z,14.27
2022-12-26T21:55:12.128Z,13.20
2022-12-26T21:57:43.220Z,11.60
2022-12-26T22:00:12.188Z,17.20
2022-12-26T22:02:57.839Z,15.32
2022-12-26T22:05:29.642Z,15.45
2022-12-26T22:08:00.346Z,11.68
2022-12-26T22:10:49.698Z,20.23
2022-12-26T22:13:18.147Z,14.95
2022-12-26T22:16:07.204Z,11.02
2022-12-26T22:18:41.022Z,12.48
2022-12-26T22:23:39.390Z,15.90
2022-12-26T22:26:13.672Z,16.90
2022-12-26T22:28:42.869Z,16.13
2022-12-26T22:31:20.046Z,10.38
2022-12-26T22:33:48.227Z,15.50
2022-12-26T22:36:16.193Z,22.33
2022-12-26T22:38:44.170Z,11.60
2022-12-26T22:41:13.628Z,19.77
2022-12-26T22:43:43.345Z,12.80
2022-12-26T22:46:11.848Z,13.07
2022-12-26T22:48:43.024Z,16.60
2022-12-26T22:51:19.575Z,22.25
2022-12-26T22:53:48.392Z,16.75
2022-12-26T22:56:18.169Z,15.65
2022-12-26T22:58:50.927Z,11.90
2022-12-26T23:01:21.027Z,14.02
2022-12-26T23:03:49.358Z,21.38
2022-12-26T23:06:20.223Z,11.05
2022-12-26T23:08:54.379Z,14.70
2022-12-26T23:11:30.289Z,17.30
2022-12-26T23:14:02.146Z,13.23
2022-12-26T23:16:35.585Z,12.95
2022-12-26T23:19:27.577Z,14.93
2022-12-26T23:21:58.966Z,13.57
2022-12-26T23:24:34.027Z,19.17
2022-12-26T23:27:20.800Z,12.02
2022-12-26T23:30:07.237Z,9.35
2022-12-26T23:32:39.703Z,16.08
2022-12-26T23:35:09.603Z,12.80
2022-12-26T23:37:39.923Z,13.80
2022-12-26T23:40:09.521Z,14.30
2022-12-26T23:42:39.403Z,17.17
2022-12-26T23:45:08.496Z,23.08
2022-12-26T23:47:38.548Z,11.00
2022-12-26T23:50:11.927Z,20.27
2022-12-26T23:52:40.535Z,14.57
2022-12-26T23:55:09.376Z,10.48
2022-12-26T23:57:38.871Z,12.70
